Time;durP1;ratioP1;P1;durP2;ratioP2;P2;SDS_P1;SDS_P2;PMS_P1;PMS_P2;Temp;Humidity;BMP_temperature;BMP_pressure;BME280_temperature;BME280_humidity;BME280_pressure;Samples;Min_cycle;Max_cycle;Signal;HPM_P1;HPM_P2
2022/04/15 00:01:13;;;;;;;;;;;;;;;11.08;76.19;102185.28;10577041;28;19931;-66
2022/04/15 00:06:34;;;;;;;;;;;;;;;10.97;77.16;102183.16;10569683;28;19970;-66
2022/04/15 00:12:00;;;;;;;;;;;;;;;10.97;77.44;102183.16;10596715;27;20011;-66
2022/04/15 00:17:21;;;;;;;;;;;;;;;11.01;77.18;102195.16;10580478;27;19924;-66
2022/04/15 00:22:43;;;;;;;;;;;;;;;10.99;77.67;102190.91;10558035;27;19927;-67
2022/04/15 00:28:04;;;;;;;;;;;;;;;10.99;77.68;102183.94;10574004;28;19927;-65
2022/04/15 00:33:26;;;;;;;;;;;;;;;11.07;77.56;102184.41;10571084;27;19930;-66
2022/04/15 00:38:49;;;;;;;;;;;;;;;11.04;77.41;102181.97;10564976;28;20199;-66
2022/04/15 00:44:11;;;;;;;;;;;;;;;11.01;77.95;102184.72;10562026;27;20276;-66
2022/04/15 00:49:34;;;;;;;;;;;;;;;10.97;77.89;102192.75;10555622;28;19935;-66
2022/04/15 00:54:56;;;;;;;;;;;;;;;10.88;77.96;102194.00;10517179;28;19947;-66
2022/04/15 01:00:19;;;;;;;;;;;;;;;10.78;79.05;102194.47;10547607;28;19950;-66
2022/04/15 01:05:40;;;;;;;;;;;;;;;10.84;78.62;102192.44;10557063;28;19928;-67
2022/04/15 01:11:03;;;;;;;;;;;;;;;10.82;79.28;102189.03;10579325;28;20027;-64
2022/04/15 01:16:24;;;;;;;;;;;;;;;10.87;79.67;102187.09;10572406;28;19930;-64
2022/04/15 01:21:48;;;;;;;;;;;;;;;10.86;79.05;102187.13;10573989;28;19928;-66
2022/04/15 01:27:09;;;;;;;;;;;;;;;10.90;78.49;102191.31;10575036;28;19934;-68
2022/04/15 01:32:31;;;;;;;;;;;;;;;10.82;79.35;102204.69;10565638;28;20375;-66
2022/04/15 01:37:53;;;;;;;;;;;;;;;10.80;79.32;102196.09;10580619;28;20332;-66
2022/04/15 01:43:14;;;;;;;;;;;;;;;10.69;79.98;102198.31;10577930;28;19938;-67
2022/04/15 01:48:36;;;;;;;;;;;;;;;10.61;80.80;102207.38;10566402;28;19938;-66
2022/04/15 01:53:57;;;;;;;;;;;;;;;10.56;81.24;102215.41;10572066;28;19923;-66
2022/04/15 01:59:19;;;;;;;;;;;;;;;10.57;80.94;102224.91;10579484;28;19923;-66
2022/04/15 02:04:41;;;;;;;;;;;;;;;10.59;80.83;102232.66;10569851;28;19928;-67
2022/04/15 02:10:03;;;;;;;;;;;;;;;10.43;80.91;102233.38;10555961;28;19924;-67
2022/04/15 02:15:24;;;;;;;;;;;;;;;10.31;81.48;102234.72;10557202;28;20846;-66
2022/04/15 02:20:46;;;;;;;;;;;;;;;10.25;80.79;102241.94;10557168;28;19924;-66
2022/04/15 02:26:08;;;;;;;;;;;;;;;10.24;81.12;102250.69;10571535;28;19927;-67
2022/04/15 02:31:29;;;;;;;;;;;;;;;10.15;81.25;102245.84;10563758;28;19932;-66
2022/04/15 02:36:51;;;;;;;;;;;;;;;10.06;80.51;102246.19;10561153;27;19924;-66
2022/04/15 02:42:13;;;;;;;;;;;;;;;9.99;80.53;102249.97;10559989;27;20029;-67
2022/04/15 02:47:35;;;;;;;;;;;;;;;9.89;81.39;102253.81;10562633;28;19928;-67
2022/04/15 02:52:58;;;;;;;;;;;;;;;9.79;81.56;102268.94;10588587;27;19931;-67
2022/04/15 02:58:21;;;;;;;;;;;;;;;9.72;81.80;102261.44;10583182;27;20045;-66
2022/04/15 03:03:43;;;;;;;;;;;;;;;9.67;82.08;102268.56;10557478;28;19942;-67
2022/04/15 03:09:04;;;;;;;;;;;;;;;9.63;82.52;102273.03;10597028;27;19923;-66
2022/04/15 03:14:25;;;;;;;;;;;;;;;9.57;82.94;102275.03;10588730;27;19931;-67
2022/04/15 03:19:47;;;;;;;;;;;;;;;9.50;84.15;102270.94;10520222;28;19924;-66
2022/04/15 03:25:10;;;;;;;;;;;;;;;9.53;84.00;102276.03;10569451;27;19931;-67
2022/04/15 03:30:31;;;;;;;;;;;;;;;9.48;84.46;102277.94;10604470;27;19924;-67
2022/04/15 03:35:53;;;;;;;;;;;;;;;9.48;84.46;102287.53;10565136;27;19934;-66
2022/04/15 03:41:14;;;;;;;;;;;;;;;9.42;84.03;102279.94;10562388;28;20380;-67
2022/04/15 03:46:38;;;;;;;;;;;;;;;9.45;83.43;102288.50;10566837;27;19934;-66
2022/04/15 03:52:00;;;;;;;;;;;;;;;9.45;83.47;102293.69;10560333;28;19923;-66
2022/04/15 03:57:21;;;;;;;;;;;;;;;9.50;83.40;102286.56;10565521;27;19931;-66
2022/04/15 04:02:44;;;;;;;;;;;;;;;9.44;84.39;102292.00;10559335;28;19934;-66
2022/04/15 04:08:05;;;;;;;;;;;;;;;9.47;83.93;102297.06;10603140;27;19924;-66
2022/04/15 04:13:27;;;;;;;;;;;;;;;9.53;83.24;102302.06;10581059;27;19931;-66
2022/04/15 04:18:48;;;;;;;;;;;;;;;9.50;83.65;102302.16;10592868;27;19930;-66
2022/04/15 04:24:10;;;;;;;;;;;;;;;9.50;83.27;102296.97;10587617;27;19923;-66
2022/04/15 04:29:32;;;;;;;;;;;;;;;9.54;83.05;102311.56;10594020;27;20386;-66
2022/04/15 04:34:53;;;;;;;;;;;;;;;9.52;83.65;102310.78;10578827;27;20265;-66
2022/04/15 04:40:15;;;;;;;;;;;;;;;9.59;83.24;102322.69;10601418;27;19931;-66
2022/04/15 04:45:37;;;;;;;;;;;;;;;9.57;83.35;102329.69;10571648;27;19927;-67
2022/04/15 04:50:58;;;;;;;;;;;;;;;9.52;83.76;102328.16;10537670;28;19924;-65
2022/04/15 04:56:19;;;;;;;;;;;;;;;9.52;83.76;102341.19;10525069;28;19935;-66
2022/04/15 05:01:41;;;;;;;;;;;;;;;9.53;84.38;102344.53;10528585;27;20403;-64
2022/04/15 05:07:03;;;;;;;;;;;;;;;9.55;83.86;102355.75;10540658;28;20586;-66
2022/04/15 05:12:25;;;;;;;;;;;;;;;9.63;84.25;102360.69;10529033;28;19928;-66
2022/04/15 05:17:46;;;;;;;;;;;;;;;9.61;84.18;102358.16;10567449;27;19928;-66
2022/04/15 05:23:08;;;;;;;;;;;;;;;9.67;84.18;102367.50;10582069;27;19924;-67
2022/04/15 05:28:32;;;;;;;;;;;;;;;9.63;84.37;102371.09;10566042;27;20407;-66
2022/04/15 05:33:54;;;;;;;;;;;;;;;9.63;84.30;102377.19;10538959;27;19939;-66
2022/04/15 05:39:15;;;;;;;;;;;;;;;9.61;84.99;102383.31;10533243;28;20427;-66
2022/04/15 05:44:36;;;;;;;;;;;;;;;9.68;85.58;102379.59;10541703;27;19931;-66
2022/04/15 05:49:58;;;;;;;;;;;;;;;9.63;85.58;102391.94;10536611;27;19928;-67
2022/04/15 05:55:23;;;;;;;;;;;;;;;9.53;86.06;102396.59;10530132;28;19932;-66
2022/04/15 06:00:45;;;;;;;;;;;;;;;9.50;87.10;102398.47;10554365;27;19998;-66
2022/04/15 06:06:07;;;;;;;;;;;;;;;9.48;87.30;102402.88;10546167;27;20295;-66
2022/04/15 06:11:28;;;;;;;;;;;;;;;9.43;86.85;102415.22;10525897;28;19934;-67
2022/04/15 06:16:51;;;;;;;;;;;;;;;9.51;86.48;102431.41;10526075;27;19924;-67
2022/04/15 06:22:12;;;;;;;;;;;;;;;9.56;86.36;102438.16;10536840;27;19927;-67
2022/04/15 06:27:34;;;;;;;;;;;;;;;9.46;86.66;102445.50;10561566;28;19932;-66
2022/04/15 06:32:55;;;;;;;;;;;;;;;9.47;86.43;102453.25;10553917;28;20434;-67
2022/04/15 06:38:18;;;;;;;;;;;;;;;9.45;86.15;102457.69;10548898;28;20273;-67
2022/04/15 06:43:40;;;;;;;;;;;;;;;9.51;85.55;102470.47;10551113;27;20409;-67
2022/04/15 06:49:01;;;;;;;;;;;;;;;9.50;85.40;102471.38;10567501;27;20362;-66
2022/04/15 06:54:23;;;;;;;;;;;;;;;9.46;85.40;102477.56;10551454;28;19928;-66
2022/04/15 06:59:44;;;;;;;;;;;;;;;9.42;84.92;102481.19;10549585;28;19928;-66
2022/04/15 07:05:07;;;;;;;;;;;;;;;9.45;84.42;102483.69;10543721;28;19934;-66
2022/04/15 07:10:29;;;;;;;;;;;;;;;9.51;84.74;102493.88;10547048;28;19934;-66
2022/04/15 07:15:50;;;;;;;;;;;;;;;9.53;84.97;102493.84;10537887;28;20392;-66
2022/04/15 07:21:12;;;;;;;;;;;;;;;9.50;84.54;102492.19;10549588;28;19979;-65
2022/04/15 07:26:33;;;;;;;;;;;;;;;9.48;84.81;102496.59;10579573;28;19958;-66
2022/04/15 07:31:55;;;;;;;;;;;;;;;9.55;84.36;102492.91;10554901;28;20296;-66
2022/04/15 07:37:17;;;;;;;;;;;;;;;9.60;84.31;102497.03;10546824;28;20406;-66
2022/04/15 07:42:39;;;;;;;;;;;;;;;9.67;82.87;102505.50;10542831;28;19951;-66
2022/04/15 07:48:00;;;;;;;;;;;;;;;9.68;82.57;102501.97;10564435;27;19924;-66
2022/04/15 07:53:22;;;;;;;;;;;;;;;9.70;82.41;102514.03;10545305;28;19948;-65
2022/04/15 07:58:44;;;;;;;;;;;;;;;9.73;83.11;102515.72;10542942;28;20431;-66
2022/04/15 08:04:05;;;;;;;;;;;;;;;9.80;82.94;102519.78;10543639;28;19924;-66
2022/04/15 08:09:27;;;;;;;;;;;;;;;9.86;82.88;102530.00;10536896;28;19946;-66
2022/04/15 08:14:48;;;;;;;;;;;;;;;9.81;82.62;102532.78;10541763;28;20300;-66
2022/04/15 08:20:10;;;;;;;;;;;;;;;9.95;81.85;102534.88;10504321;28;67022;-66
2022/04/15 08:25:31;;;;;;;;;;;;;;;9.98;81.54;102551.25;10504065;28;19931;-67
2022/04/15 08:30:53;;;;;;;;;;;;;;;10.07;81.18;102550.13;10503694;28;19928;-66
2022/04/15 08:36:15;;;;;;;;;;;;;;;10.11;81.39;102556.94;10496958;28;19937;-67
2022/04/15 08:41:40;;;;;;;;;;;;;;;10.11;82.63;102562.16;10495979;28;19928;-67
2022/04/15 08:47:02;;;;;;;;;;;;;;;10.14;81.56;102567.25;10499135;28;19935;-67
2022/04/15 08:52:24;;;;;;;;;;;;;;;10.09;81.47;102574.38;10498142;28;19932;-67
2022/04/15 08:57:45;;;;;;;;;;;;;;;10.06;81.12;102577.06;10493088;28;19932;-67
2022/04/15 09:03:07;;;;;;;;;;;;;;;10.09;82.64;102574.38;10501817;28;19924;-67
2022/04/15 09:08:29;;;;;;;;;;;;;;;10.08;82.51;102589.16;10503159;28;20408;-72
2022/04/15 09:13:51;;;;;;;;;;;;;;;10.15;81.97;102589.81;10505089;28;19931;-67
2022/04/15 09:19:13;;;;;;;;;;;;;;;10.19;81.95;102604.44;10503670;28;19928;-66
2022/04/15 09:24:37;;;;;;;;;;;;;;;10.17;81.60;102603.63;10495051;28;20245;-66
2022/04/15 09:29:58;;;;;;;;;;;;;;;10.19;82.09;102607.03;10491097;28;19931;-67
2022/04/15 09:35:20;;;;;;;;;;;;;;;10.06;81.74;102624.84;10491246;28;20012;-69
2022/04/15 09:40:42;;;;;;;;;;;;;;;10.03;81.17;102619.72;10494579;28;19955;-66
2022/04/15 09:46:08;;;;;;;;;;;;;;;10.02;80.93;102632.81;10506310;28;19939;-70
2022/04/15 09:51:33;;;;;;;;;;;;;;;9.96;81.87;102631.25;10508469;28;19932;-66
2022/04/15 09:56:57;;;;;;;;;;;;;;;9.95;81.00;102633.88;10503378;28;19928;-67
2022/04/15 10:02:20;;;;;;;;;;;;;;;9.95;81.37;102629.53;10512121;28;20548;-66
2022/04/15 10:07:42;;;;;;;;;;;;;;;10.00;82.38;102642.44;10518770;28;19924;-66
2022/04/15 10:13:05;;;;;;;;;;;;;;;10.04;81.25;102641.44;10515680;28;19972;-68
2022/04/15 10:18:28;;;;;;;;;;;;;;;10.16;81.29;102646.22;10520126;28;19936;-64
2022/04/15 10:23:51;;;;;;;;;;;;;;;10.25;79.53;102648.50;10509698;28;19924;-66
2022/04/15 10:29:13;;;;;;;;;;;;;;;10.33;79.47;102642.13;10509659;28;20384;-64
2022/04/15 10:34:46;;;;;;;;;;;;;;;10.38;79.52;102645.44;10495417;28;19931;-65
2022/04/15 10:40:34;;;;;;;;;;;;;;;10.41;79.26;102645.31;10506247;28;20400;-67
2022/04/15 10:46:11;;;;;;;;;;;;;;;10.42;79.48;102651.41;10516867;28;19924;-65
2022/04/15 10:51:34;;;;;;;;;;;;;;;10.52;79.76;102649.25;10508317;28;20011;-65
2022/04/15 10:57:00;;;;;;;;;;;;;;;10.59;78.87;102645.53;10510321;28;20481;-65
2022/04/15 11:02:22;;;;;;;;;;;;;;;10.65;78.18;102645.31;10535623;28;19924;-64
2022/04/15 11:07:50;;;;;;;;;;;;;;;10.66;78.87;102647.00;10526779;28;19928;-66
2022/04/15 11:13:28;;;;;;;;;;;;;;;10.73;78.75;102647.63;10520719;28;19924;-64
2022/04/15 11:18:53;;;;;;;;;;;;;;;10.80;78.39;102655.19;10530209;28;19924;-62
2022/04/15 11:24:30;;;;;;;;;;;;;;;10.81;79.72;102651.66;10535343;28;19939;-64
2022/04/15 11:29:53;;;;;;;;;;;;;;;10.93;78.41;102651.22;10492372;28;19924;-66
2022/04/15 11:35:28;;;;;;;;;;;;;;;11.04;79.04;102649.09;10504813;28;20508;-66
2022/04/15 11:40:50;;;;;;;;;;;;;;;11.03;79.49;102642.16;10492369;28;20394;-64
2022/04/15 11:46:11;;;;;;;;;;;;;;;11.16;78.24;102653.84;10501685;28;19925;-66
2022/04/15 11:51:33;;;;;;;;;;;;;;;11.16;77.72;102652.97;10499001;28;19928;-63
2022/04/15 11:56:55;;;;;;;;;;;;;;;11.25;77.58;102669.13;10501030;28;20188;-65
2022/04/15 12:02:23;;;;;;;;;;;;;;;11.27;77.78;102663.88;10505708;28;20516;-72
2022/04/15 12:07:44;;;;;;;;;;;;;;;11.35;77.61;102670.50;10487886;28;19932;-68
2022/04/15 12:13:06;;;;;;;;;;;;;;;11.41;77.34;102675.47;10486574;28;19924;-65
2022/04/15 12:18:28;;;;;;;;;;;;;;;11.41;76.72;102680.69;10510616;28;19924;-63
2022/04/15 12:24:02;;;;;;;;;;;;;;;11.43;77.40;102676.28;10494215;28;19928;-67
2022/04/15 12:35:11;;;;;;;;;;;;;;;11.47;76.48;102680.47;10490059;28;19924;-63
2022/04/15 12:40:32;;;;;;;;;;;;;;;11.47;77.67;102688.31;10489752;28;19928;-64
2022/04/15 12:45:55;;;;;;;;;;;;;;;11.44;77.66;102685.81;10493091;28;19925;-66
2022/04/15 12:51:17;;;;;;;;;;;;;;;11.31;78.11;102694.16;10505293;28;19924;-65
2022/04/15 12:56:52;;;;;;;;;;;;;;;11.32;78.07;102691.50;10506184;28;19932;-63
2022/04/15 13:02:13;;;;;;;;;;;;;;;11.49;78.08;102695.16;10490450;28;19924;-66
2022/04/15 13:07:35;;;;;;;;;;;;;;;11.58;77.02;102699.22;10488401;28;19954;-70
2022/04/15 13:13:00;;;;;;;;;;;;;;;11.65;77.58;102696.31;10498543;28;19995;-67
2022/04/15 13:18:22;;;;;;;;;;;;;;;11.64;76.80;102699.00;10503732;28;19925;-74
2022/04/15 13:23:44;;;;;;;;;;;;;;;11.70;76.54;102693.50;10508623;28;19934;-68
2022/04/15 13:29:05;;;;;;;;;;;;;;;11.73;77.17;102698.63;10522223;28;19935;-64
2022/04/15 13:34:32;;;;;;;;;;;;;;;11.69;76.91;102702.25;10501697;28;20364;-63
2022/04/15 13:39:54;;;;;;;;;;;;;;;11.69;76.50;102697.03;10487642;28;19925;-67
2022/04/15 13:45:15;;;;;;;;;;;;;;;11.66;77.65;102703.25;10515636;28;19935;-63
2022/04/15 13:50:37;;;;;;;;;;;;;;;11.65;76.38;102713.72;10510625;28;19951;-63
2022/04/15 14:01:40;;;;;;;;;;;;;;;11.86;75.38;102723.34;10499638;28;19952;-64
2022/04/15 14:07:02;;;;;;;;;;;;;;;11.96;75.26;102732.53;10513547;28;20393;-64
2022/04/15 14:12:23;;;;;;;;;;;;;;;12.00;75.47;102728.88;10511071;28;19924;-64
2022/04/15 14:17:45;;;;;;;;;;;;;;;12.06;75.24;102723.41;10500636;28;20301;-65
2022/04/15 14:23:07;;;;;;;;;;;;;;;12.05;75.58;102721.72;10495486;28;19928;-67
2022/04/15 14:28:30;;;;;;;;;;;;;;;12.03;76.41;102728.75;10491416;28;20270;-63
2022/04/15 14:33:51;;;;;;;;;;;;;;;12.01;76.15;102725.34;10501917;28;19932;-73
2022/04/15 14:39:13;;;;;;;;;;;;;;;11.99;75.21;102724.56;10499595;28;20020;-62
2022/04/15 14:44:40;;;;;;;;;;;;;;;11.98;76.44;102726.34;10508459;28;20280;-63
2022/04/15 14:50:05;;;;;;;;;;;;;;;11.97;75.93;102724.63;10502559;28;20053;-67
2022/04/15 14:55:26;;;;;;;;;;;;;;;11.90;75.78;102728.38;10507509;28;20373;-63
2022/04/15 15:00:48;;;;;;;;;;;;;;;11.94;74.99;102734.34;10493722;28;19939;-67
2022/04/15 15:06:10;;;;;;;;;;;;;;;12.02;76.01;102732.28;10501602;28;19924;-62
2022/04/15 15:11:32;;;;;;;;;;;;;;;11.98;75.90;102730.69;10502382;28;19928;-62
2022/04/15 15:16:53;;;;;;;;;;;;;;;11.98;74.95;102738.53;10508355;28;20312;-64
2022/04/15 15:22:16;;;;;;;;;;;;;;;11.97;75.98;102739.44;10498558;28;19932;-66
2022/04/15 15:33:19;;;;;;;;;;;;;;;11.98;76.44;102751.63;10518137;28;20042;-66
2022/04/15 15:38:44;;;;;;;;;;;;;;;11.95;76.68;102751.72;10509329;28;19928;-66
2022/04/15 15:44:05;;;;;;;;;;;;;;;11.87;76.30;102748.56;10493501;28;20046;-68
2022/04/15 15:49:27;;;;;;;;;;;;;;;11.87;75.78;102748.56;10498880;28;19928;-65
2022/04/15 15:54:48;;;;;;;;;;;;;;;11.80;76.35;102762.78;10514632;28;19924;-66
2022/04/15 16:00:11;;;;;;;;;;;;;;;11.73;75.99;102756.09;10528157;28;19931;-67
2022/04/15 16:05:32;;;;;;;;;;;;;;;11.70;76.85;102759.69;10492207;28;19935;-69
2022/04/15 16:10:54;;;;;;;;;;;;;;;11.73;77.16;102761.31;10498337;28;19928;-66
2022/04/15 16:16:15;;;;;;;;;;;;;;;11.72;77.02;102760.47;10495514;28;20415;-65
2022/04/15 16:21:37;;;;;;;;;;;;;;;11.72;76.39;102759.63;10497738;28;19924;-65
2022/04/15 16:26:58;;;;;;;;;;;;;;;11.69;75.07;102763.22;10507485;28;20011;-66
2022/04/15 16:32:20;;;;;;;;;;;;;;;11.77;75.03;102768.16;10524052;28;19931;-64
2022/04/15 16:37:42;;;;;;;;;;;;;;;11.97;75.92;102768.19;10516638;28;19943;-66
2022/04/15 16:43:04;;;;;;;;;;;;;;;12.28;75.79;102773.91;10489405;28;19924;-65
2022/04/15 16:48:26;;;;;;;;;;;;;;;12.38;73.66;102783.06;10503883;28;20368;-65
2022/04/15 16:53:48;;;;;;;;;;;;;;;12.29;74.18;102779.09;10503904;28;19932;-65
2022/04/15 16:59:11;;;;;;;;;;;;;;;12.25;74.39;102787.97;10500034;28;19935;-66
2022/04/15 17:04:33;;;;;;;;;;;;;;;12.14;74.33;102781.47;10497306;28;19924;-65
2022/04/15 17:09:54;;;;;;;;;;;;;;;12.06;75.43;102791.38;10513594;28;19928;-66
2022/04/15 17:15:16;;;;;;;;;;;;;;;12.20;75.41;102794.31;10478462;28;19932;-67
2022/04/15 17:20:37;;;;;;;;;;;;;;;12.18;75.77;102790.91;10512833;28;19924;-65
2022/04/15 17:25:59;;;;;;;;;;;;;;;12.14;75.78;102794.53;10495236;28;20373;-65
2022/04/15 17:31:21;;;;;;;;;;;;;;;12.09;75.68;102796.47;10500342;28;19924;-65
2022/04/15 17:36:43;;;;;;;;;;;;;;;12.03;74.94;102802.78;10503327;28;19950;-65
2022/04/15 17:42:04;;;;;;;;;;;;;;;12.02;75.92;102810.72;10502345;28;19931;-65
2022/04/15 17:47:27;;;;;;;;;;;;;;;11.92;76.13;102806.75;10501855;28;19928;-65
2022/04/15 17:52:49;;;;;;;;;;;;;;;11.83;76.27;102807.09;10505962;28;19924;-65
2022/04/15 17:58:16;;;;;;;;;;;;;;;11.72;76.06;102827.56;10503805;28;19925;-64
2022/04/15 18:03:38;;;;;;;;;;;;;;;11.69;77.41;102832.88;10496939;28;19954;-67
2022/04/15 18:08:59;;;;;;;;;;;;;;;11.64;77.21;102840.91;10504379;28;19928;-65
2022/04/15 18:14:21;;;;;;;;;;;;;;;11.61;76.77;102842.78;10497589;28;19933;-64
2022/04/15 18:19:46;;;;;;;;;;;;;;;11.59;76.82;102842.81;10487741;28;19932;-68
2022/04/15 18:25:07;;;;;;;;;;;;;;;11.57;77.73;102849.00;10509415;28;19924;-67
2022/04/15 18:30:29;;;;;;;;;;;;;;;11.52;77.06;102861.34;10504732;28;19977;-65
2022/04/15 18:35:51;;;;;;;;;;;;;;;11.47;77.14;102862.41;10496481;28;20401;-69
2022/04/15 18:41:12;;;;;;;;;;;;;;;11.47;76.86;102871.13;10507498;28;20293;-64
2022/04/15 18:46:34;;;;;;;;;;;;;;;11.43;77.21;102866.91;10508924;28;20276;-65
2022/04/15 18:57:36;;;;;;;;;;;;;;;11.40;77.49;102887.91;10496643;28;19931;-65
2022/04/15 19:02:58;;;;;;;;;;;;;;;11.36;77.44;102891.53;10505024;28;20380;-66
2022/04/15 19:08:19;;;;;;;;;;;;;;;11.37;78.01;102902.84;10505866;28;19932;-66
2022/04/15 19:13:41;;;;;;;;;;;;;;;11.32;77.92;102912.56;10510244;28;19935;-66
2022/04/15 19:19:02;;;;;;;;;;;;;;;11.27;78.47;102917.97;10504179;28;19928;-66
2022/04/15 19:24:24;;;;;;;;;;;;;;;11.27;78.92;102917.13;10499537;28;19928;-66
2022/04/15 19:29:48;;;;;;;;;;;;;;;11.29;79.23;102926.59;10517330;28;19912;-69
2022/04/15 19:35:10;;;;;;;;;;;;;;;11.27;79.30;102936.25;10505032;28;19928;-67
2022/04/15 19:40:31;;;;;;;;;;;;;;;11.26;79.23;102942.38;10530201;28;20295;-66
2022/04/15 19:45:53;;;;;;;;;;;;;;;11.16;80.17;102943.59;10509911;28;20471;-65
2022/04/15 19:51:15;;;;;;;;;;;;;;;11.10;80.33;102938.56;10486343;28;19943;-66
2022/04/15 20:02:36;;;;;;;;;;;;;;;11.02;81.85;102943.19;10498525;28;19939;-65
2022/04/15 20:07:58;;;;;;;;;;;;;;;10.99;81.77;102952.84;10494833;28;19932;-67
2022/04/15 20:13:20;;;;;;;;;;;;;;;10.87;82.11;102956.72;10489786;28;20266;-69
2022/04/15 20:18:41;;;;;;;;;;;;;;;10.83;82.69;102968.16;10500023;28;19928;-67
2022/04/15 20:24:03;;;;;;;;;;;;;;;10.86;82.33;102968.06;10486529;28;19935;-69
2022/04/15 20:29:25;;;;;;;;;;;;;;;10.84;83.06;102962.03;10516543;28;19935;-67
2022/04/15 20:34:46;;;;;;;;;;;;;;;10.83;83.13;102962.94;10494422;28;20365;-70
2022/04/15 20:40:08;;;;;;;;;;;;;;;10.75;84.40;102959.72;10526329;28;19928;-68
2022/04/15 20:45:30;;;;;;;;;;;;;;;10.77;84.32;102950.06;10504927;28;19964;-68
2022/04/15 20:50:52;;;;;;;;;;;;;;;10.71;84.71;102946.81;10491152;28;19928;-67
2022/04/15 20:56:13;;;;;;;;;;;;;;;10.71;84.86;102950.28;10502294;28;19930;-68
2022/04/15 21:01:35;;;;;;;;;;;;;;;10.74;84.90;102946.72;10500065;28;19963;-68
2022/04/15 21:06:57;;;;;;;;;;;;;;;10.73;84.99;102951.09;10489369;28;19944;-68
2022/04/15 21:12:19;;;;;;;;;;;;;;;10.77;85.78;102957.91;10470073;28;20046;-69
2022/04/15 21:17:40;;;;;;;;;;;;;;;10.77;84.75;102955.28;10505084;28;20639;-68
2022/04/15 21:23:02;;;;;;;;;;;;;;;10.75;85.16;102954.50;10503128;28;19932;-68
2022/04/15 21:28:23;;;;;;;;;;;;;;;10.72;85.45;102965.03;10502862;28;19938;-68
2022/04/15 21:33:45;;;;;;;;;;;;;;;10.69;85.93;102972.94;10487384;28;20297;-67
2022/04/15 21:39:06;;;;;;;;;;;;;;;10.68;85.65;102968.63;10497767;28;19932;-69
2022/04/15 21:44:28;;;;;;;;;;;;;;;10.66;85.29;102967.81;10524981;28;19924;-67
2022/04/15 21:49:49;;;;;;;;;;;;;;;10.65;85.84;102973.94;10502316;28;19936;-67
2022/04/15 21:55:11;;;;;;;;;;;;;;;10.65;86.00;102983.53;10521858;28;19928;-69
2022/04/15 22:00:41;;;;;;;;;;;;;;;10.65;86.46;102984.38;10536940;28;19928;-67
2022/04/15 22:06:04;;;;;;;;;;;;;;;10.65;86.41;102988.75;10524518;28;20413;-69
2022/04/15 22:11:25;;;;;;;;;;;;;;;10.67;86.13;102997.38;10540839;28;19924;-69
2022/04/15 22:16:47;;;;;;;;;;;;;;;10.66;86.51;102993.91;10505198;28;20297;-66
2022/04/15 22:22:11;;;;;;;;;;;;;;;10.62;86.93;102994.88;10498338;28;19932;-65
2022/04/15 22:27:33;;;;;;;;;;;;;;;10.63;87.20;102996.59;10511092;28;19935;-68
2022/04/15 22:32:57;;;;;;;;;;;;;;;10.62;87.58;102997.50;10498986;28;19925;-70
2022/04/15 22:38:19;;;;;;;;;;;;;;;10.61;87.22;102995.81;10528147;28;19938;-67
2022/04/15 22:43:41;;;;;;;;;;;;;;;10.62;87.88;102997.50;10533748;28;19924;-67
2022/04/15 22:49:03;;;;;;;;;;;;;;;10.61;87.77;103005.38;10511254;28;19936;-67
2022/04/15 23:00:07;;;;;;;;;;;;;;;10.59;88.77;103015.88;10529633;28;19931;-66
2022/04/15 23:05:28;;;;;;;;;;;;;;;10.55;89.00;103019.47;10511908;28;19947;-67
2022/04/15 23:10:50;;;;;;;;;;;;;;;10.48;89.10;103027.50;10535731;28;19924;-66
2022/04/15 23:16:12;;;;;;;;;;;;;;;10.43;88.49;103028.53;10504558;28;20028;-67
2022/04/15 23:21:34;;;;;;;;;;;;;;;10.40;88.01;103028.63;10493796;28;19931;-68
2022/04/15 23:26:56;;;;;;;;;;;;;;;10.36;86.96;103034.81;10515128;28;19925;-67
2022/04/15 23:32:19;;;;;;;;;;;;;;;10.23;86.73;103026.50;10514163;28;19951;-68
2022/04/15 23:37:40;;;;;;;;;;;;;;;10.14;86.23;103037.16;10504175;28;20167;-68
2022/04/15 23:43:02;;;;;;;;;;;;;;;10.03;85.36;103044.44;10502550;28;20308;-67
2022/04/15 23:48:33;;;;;;;;;;;;;;;9.96;85.37;103042.00;10510755;28;20372;-66
2022/04/15 23:53:55;;;;;;;;;;;;;;;9.87;85.14;103042.25;10496009;28;19936;-68
2022/04/15 23:59:19;;;;;;;;;;;;;;;9.81;85.28;103042.41;10527723;28;20304;-67
